logo dgac
Jueves 24 de Enero del 2019
Buscar por aerodromo o helipuerto
Ingrese nombre de aeródromo, localidad o designador OACI:

Aeródromo: Alto Palena (PUB) (SCAP)

Ubicación: Palena, X Región, Chile (43º 36' 42'' S, 71º 48' 19'' W) Ver ubicación en el mapa

Pistas

Orientación Dimensión Pendiente Superficie Resistencia APCH THR RWY PAPI
07/25 876 x 18 0,50 ASPH PCN 27 F/A/Y/T No No No No
Horas de operación HJ
Elevación 273 m / 897 ft
Otra Información Adm : DGAC
Uso : PUB
TEL 652486286
Ubicado a 1 km N de Palena


Cámaras de Aeródromos. www.dgac.gob.cl.

Otra información ver AIP-Chile Volumen I AD 3.9-15.2-P
CCCM/FCCV Descargar
andera de Chile
Mapa de Alto Palena (PUB) (SCAP)

Último METAR

METAR SCAP 240500Z AUTO VRB03KT CAVOK 10/05 Q1017

Último TAF

No hay tafs registrados para este aeródromo

Últimas fotos cámaras

Imagen aerodromo Alto Palena (PUB) (SCAP) Este tomada el 24-01-2019 02:18:21 Imagen aerodromo Alto Palena (PUB) (SCAP) Oeste tomada el 07-01-2019 10:52:46

Último NOTAM

C0160/19 NOTAMN Q)SCTZ/QOBLX/IV/BO/A/000/999/4337S07148W005 A)SCAP B)1901162031 C)1904162030 E)CTN OBSTACULOS SANJA DE DRENAJE AGUAS LLUVIAS DE WID 1M Y DPT 0.7M UBICADA A 16M DEL COSTADO N DE BORDE DE RWY 07/25 INSTRUCCIONES: ALTO PALENA INFORMACION FREQ 126.7 MHZ

LLegadas a Alto Palena (PUB) (SCAP)

En vuelo

Vuelo Procedencia Hora Despegue Local Hora Arribo Local

Salidas de Alto Palena (PUB) (SCAP)

En vuelo

Vuelo Hacia Hora Despegue Local Hora Arribo Local